Time;durP1;ratioP1;P1;durP2;ratioP2;P2;SDS_P1;SDS_P2;PMS_P1;PMS_P2;Temp;Humidity;BMP_temperature;BMP_pressure;BME280_temperature;BME280_humidity;BME280_pressure;Samples;Min_cycle;Max_cycle;Signal;HPM_P1;HPM_P2
2021/05/05 00:02:03;;;;;;;6.07;1.52;;;;;;;;;;5067303;28;20024;-74
2021/05/05 00:04:29;;;;;;;4.57;0.80;;;;;;;;;;5066272;28;20021;-67
2021/05/05 00:06:56;;;;;;;6.93;2.13;;;;;;;;;;5055874;28;20039;-72
2021/05/05 00:09:22;;;;;;;7.75;1.25;;;;;;;;;;5066030;28;20053;-72
2021/05/05 00:11:48;;;;;;;12.80;1.55;;;;;;;;;;5064410;28;20115;-69
2021/05/05 00:14:17;;;;;;;10.55;1.45;;;;;;;;;;5074274;28;20059;-69
2021/05/05 00:16:44;;;;;;;8.73;1.58;;;;;;;;;;5072842;28;20012;-68
2021/05/05 00:19:10;;;;;;;6.72;1.25;;;;;;;;;;5066822;28;20036;-71
2021/05/05 00:21:36;;;;;;;10.80;1.45;;;;;;;;;;5060211;28;20603;-72
2021/05/05 00:24:03;;;;;;;17.98;2.22;;;;;;;;;;5072047;28;20479;-71
2021/05/05 00:26:29;;;;;;;12.18;1.85;;;;;;;;;;5066641;28;20020;-71
2021/05/05 00:28:55;;;;;;;3.45;1.13;;;;;;;;;;5062699;28;20052;-72
2021/05/05 00:31:22;;;;;;;7.00;1.80;;;;;;;;;;5068135;28;20032;-73
2021/05/05 00:33:48;;;;;;;6.65;1.70;;;;;;;;;;5063514;28;20035;-69
2021/05/05 00:36:14;;;;;;;7.93;1.67;;;;;;;;;;5068069;28;20033;-72
2021/05/05 00:38:40;;;;;;;17.50;2.28;;;;;;;;;;5052807;28;20040;-74
2021/05/05 00:41:08;;;;;;;12.40;2.08;;;;;;;;;;5057720;28;20032;-71
2021/05/05 00:43:34;;;;;;;6.75;1.30;;;;;;;;;;5056442;28;20106;-73
2021/05/05 00:46:00;;;;;;;14.82;2.08;;;;;;;;;;5062852;28;20012;-72
2021/05/05 00:48:26;;;;;;;13.75;1.95;;;;;;;;;;5067040;28;20081;-71
2021/05/05 00:50:53;;;;;;;9.45;2.10;;;;;;;;;;5057846;28;20033;-71
2021/05/05 00:53:19;;;;;;;13.57;2.17;;;;;;;;;;5063121;28;20040;-73
2021/05/05 00:55:45;;;;;;;10.27;2.10;;;;;;;;;;5061002;28;20028;-73
2021/05/05 00:58:11;;;;;;;12.95;1.70;;;;;;;;;;5070376;28;20024;-73
2021/05/05 01:00:37;;;;;;;13.20;2.22;;;;;;;;;;5056425;28;20070;-73
2021/05/05 01:03:03;;;;;;;19.75;2.53;;;;;;;;;;5066067;28;20111;-72
2021/05/05 01:05:29;;;;;;;15.88;2.28;;;;;;;;;;5066843;28;20032;-71
2021/05/05 01:07:55;;;;;;;16.30;4.47;;;;;;;;;;5056859;28;20063;-71
2021/05/05 01:10:21;;;;;;;12.32;2.42;;;;;;;;;;5066492;28;20498;-71
2021/05/05 01:12:48;;;;;;;15.05;2.47;;;;;;;;;;5064998;28;20082;-72
2021/05/05 01:15:15;;;;;;;15.55;2.40;;;;;;;;;;5061030;28;20037;-74
2021/05/05 01:17:41;;;;;;;15.18;2.10;;;;;;;;;;5068016;28;20104;-71
2021/05/05 01:20:08;;;;;;;11.68;2.42;;;;;;;;;;5058800;28;20502;-73
2021/05/05 01:22:34;;;;;;;15.45;1.85;;;;;;;;;;5063570;28;20097;-71
2021/05/05 01:25:00;;;;;;;12.20;2.38;;;;;;;;;;5061978;28;20085;-71
2021/05/05 01:27:26;;;;;;;10.27;2.00;;;;;;;;;;5062827;28;20495;-71
2021/05/05 01:29:52;;;;;;;15.57;2.30;;;;;;;;;;5058365;28;20036;-72
2021/05/05 01:32:18;;;;;;;12.75;1.67;;;;;;;;;;5064150;28;20033;-71
2021/05/05 01:34:44;;;;;;;10.52;2.40;;;;;;;;;;5069414;28;20036;-72
2021/05/05 01:37:11;;;;;;;17.45;2.17;;;;;;;;;;5070625;28;20035;-71
2021/05/05 01:39:38;;;;;;;13.73;1.75;;;;;;;;;;5060739;28;20017;-72
2021/05/05 01:42:04;;;;;;;10.75;2.05;;;;;;;;;;5062317;28;20152;-73
2021/05/05 01:44:34;;;;;;;15.45;1.90;;;;;;;;;;5070061;28;20483;-70
2021/05/05 01:47:00;;;;;;;11.77;1.63;;;;;;;;;;5065344;28;20188;-72
2021/05/05 01:49:27;;;;;;;8.45;1.63;;;;;;;;;;5069401;28;20025;-69
2021/05/05 01:51:54;;;;;;;4.32;1.23;;;;;;;;;;5068299;28;20033;-74
2021/05/05 01:54:21;;;;;;;10.48;1.65;;;;;;;;;;5058987;28;20032;-71
2021/05/05 01:56:47;;;;;;;9.50;3.47;;;;;;;;;;5065397;28;20085;-71
2021/05/05 01:59:13;;;;;;;7.40;2.55;;;;;;;;;;5066932;28;20087;-73
2021/05/05 02:01:39;;;;;;;5.55;1.17;;;;;;;;;;5062908;28;20044;-74
2021/05/05 02:04:05;;;;;;;4.70;1.33;;;;;;;;;;5068641;28;20020;-73
2021/05/05 02:06:31;;;;;;;10.77;1.23;;;;;;;;;;5065859;28;20048;-72
2021/05/05 02:08:59;;;;;;;10.90;1.42;;;;;;;;;;5060247;28;20076;-72
2021/05/05 02:11:25;;;;;;;8.73;1.13;;;;;;;;;;5059072;28;20028;-72
2021/05/05 02:13:51;;;;;;;9.02;2.50;;;;;;;;;;5058792;28;20047;-72
2021/05/05 02:16:17;;;;;;;6.90;1.48;;;;;;;;;;5062183;28;20028;-71
2021/05/05 02:18:43;;;;;;;10.05;1.20;;;;;;;;;;5065643;28;20032;-72
2021/05/05 02:21:09;;;;;;;8.93;1.73;;;;;;;;;;5056862;28;20032;-71
2021/05/05 02:23:35;;;;;;;8.10;1.30;;;;;;;;;;5065308;28;20050;-71
2021/05/05 02:26:02;;;;;;;7.28;1.13;;;;;;;;;;5067656;28;20050;-71
2021/05/05 02:28:28;;;;;;;7.07;1.48;;;;;;;;;;5067009;28;20077;-69
2021/05/05 02:30:55;;;;;;;14.23;1.95;;;;;;;;;;5059779;28;20494;-72
2021/05/05 02:33:21;;;;;;;13.10;1.60;;;;;;;;;;5071014;28;20028;-73
2021/05/05 02:35:47;;;;;;;11.00;1.98;;;;;;;;;;5063633;28;20040;-73
2021/05/05 02:38:13;;;;;;;5.88;1.88;;;;;;;;;;5060087;28;20482;-71
2021/05/05 02:40:39;;;;;;;13.43;2.40;;;;;;;;;;5061085;28;20039;-73
2021/05/05 02:43:06;;;;;;;11.88;2.00;;;;;;;;;;5063454;28;20152;-71
2021/05/05 02:45:32;;;;;;;9.98;2.17;;;;;;;;;;5053317;28;20017;-72
2021/05/05 02:47:58;;;;;;;5.90;1.50;;;;;;;;;;5060017;28;20747;-69
2021/05/05 02:50:24;;;;;;;8.30;1.75;;;;;;;;;;5066761;28;20032;-71
2021/05/05 02:52:50;;;;;;;7.93;1.50;;;;;;;;;;5063497;28;20094;-72
2021/05/05 02:55:16;;;;;;;10.15;1.70;;;;;;;;;;5064325;28;20526;-73
2021/05/05 02:57:42;;;;;;;10.77;2.47;;;;;;;;;;5049105;28;20572;-72
2021/05/05 03:00:09;;;;;;;13.65;2.17;;;;;;;;;;5061219;28;20029;-74
2021/05/05 03:02:35;;;;;;;12.63;2.25;;;;;;;;;;5061778;28;20021;-75
2021/05/05 03:05:02;;;;;;;11.48;2.15;;;;;;;;;;5057360;28;20032;-75
2021/05/05 03:07:28;;;;;;;12.60;2.03;;;;;;;;;;5052893;28;20060;-73
2021/05/05 03:09:54;;;;;;;8.93;2.50;;;;;;;;;;5049809;28;20013;-74
2021/05/05 03:12:20;;;;;;;8.55;2.13;;;;;;;;;;5059537;28;20075;-72
2021/05/05 03:14:46;;;;;;;11.88;2.08;;;;;;;;;;5068946;28;20021;-71
2021/05/05 03:17:12;;;;;;;7.70;1.60;;;;;;;;;;5066228;28;20626;-73
2021/05/05 03:19:38;;;;;;;8.07;1.70;;;;;;;;;;5059153;28;20032;-73
2021/05/05 03:22:04;;;;;;;21.20;2.10;;;;;;;;;;5057004;28;20040;-72
2021/05/05 03:24:30;;;;;;;8.27;1.75;;;;;;;;;;5067280;28;20559;-68
2021/05/05 03:26:56;;;;;;;15.68;3.55;;;;;;;;;;5061667;28;20052;-67
2021/05/05 03:29:22;;;;;;;15.38;1.40;;;;;;;;;;5058871;28;20383;-68
2021/05/05 03:31:48;;;;;;;8.73;4.07;;;;;;;;;;5063784;28;20024;-69
2021/05/05 03:34:15;;;;;;;11.40;2.00;;;;;;;;;;5059219;28;20021;-68
2021/05/05 03:36:41;;;;;;;16.27;1.75;;;;;;;;;;5064118;28;20028;-68
2021/05/05 03:39:07;;;;;;;11.50;1.63;;;;;;;;;;5061754;28;20100;-68
2021/05/05 03:41:33;;;;;;;9.43;2.40;;;;;;;;;;5062952;28;20033;-67
2021/05/05 03:44:00;;;;;;;8.57;2.35;;;;;;;;;;5058008;28;20067;-67
2021/05/05 03:46:26;;;;;;;11.88;2.97;;;;;;;;;;5064338;28;20488;-68
2021/05/05 03:48:52;;;;;;;13.68;3.35;;;;;;;;;;5071107;28;20516;-68
2021/05/05 03:51:18;;;;;;;14.50;3.45;;;;;;;;;;5068902;28;20040;-67
2021/05/05 03:53:44;;;;;;;18.48;3.83;;;;;;;;;;5069331;28;20025;-68
2021/05/05 03:56:10;;;;;;;19.38;3.30;;;;;;;;;;5057634;28;20495;-70
2021/05/05 03:58:37;;;;;;;14.95;3.60;;;;;;;;;;5052595;28;20025;-69
2021/05/05 04:01:03;;;;;;;15.63;3.72;;;;;;;;;;5065228;28;20138;-68
2021/05/05 04:03:29;;;;;;;16.23;3.95;;;;;;;;;;5069304;28;20036;-70
2021/05/05 04:05:55;;;;;;;17.83;4.15;;;;;;;;;;5069510;28;20039;-70
2021/05/05 04:08:21;;;;;;;13.77;3.70;;;;;;;;;;5060589;28;20049;-70
2021/05/05 04:10:47;;;;;;;19.15;4.18;;;;;;;;;;5068301;28;20582;-71
2021/05/05 04:13:13;;;;;;;25.25;4.85;;;;;;;;;;5071520;28;20071;-71
2021/05/05 04:15:40;;;;;;;15.05;3.10;;;;;;;;;;5070846;28;20029;-71
2021/05/05 04:18:06;;;;;;;24.83;3.95;;;;;;;;;;5057345;28;20029;-70
2021/05/05 04:20:32;;;;;;;30.88;3.40;;;;;;;;;;5069873;28;20024;-72
2021/05/05 04:22:58;;;;;;;16.35;3.63;;;;;;;;;;5058100;28;20021;-71
2021/05/05 04:25:24;;;;;;;17.77;3.90;;;;;;;;;;5072643;28;20024;-73
2021/05/05 04:27:50;;;;;;;15.55;3.08;;;;;;;;;;5060312;28;20032;-71
2021/05/05 04:30:18;;;;;;;17.63;3.08;;;;;;;;;;5059144;28;20483;-71
2021/05/05 04:32:44;;;;;;;18.02;3.85;;;;;;;;;;5068980;28;20020;-71
2021/05/05 04:35:11;;;;;;;20.20;4.00;;;;;;;;;;5053350;28;20017;-72
2021/05/05 04:37:37;;;;;;;17.48;3.35;;;;;;;;;;5053813;28;20491;-71
2021/05/05 04:40:05;;;;;;;21.17;4.05;;;;;;;;;;5058286;28;20025;-72
2021/05/05 04:42:31;;;;;;;16.15;3.33;;;;;;;;;;5059535;28;20503;-72
2021/05/05 04:45:00;;;;;;;19.80;2.83;;;;;;;;;;5068688;28;20069;-72
2021/05/05 04:47:26;;;;;;;17.67;3.67;;;;;;;;;;5063141;28;20033;-71
2021/05/05 04:49:52;;;;;;;18.95;3.67;;;;;;;;;;5068429;28;20040;-71
2021/05/05 04:52:18;;;;;;;17.90;4.53;;;;;;;;;;5071929;28;20043;-72
2021/05/05 04:54:45;;;;;;;23.70;4.30;;;;;;;;;;5066613;28;20037;-76
2021/05/05 04:57:11;;;;;;;23.77;4.55;;;;;;;;;;5071542;28;20028;-73
2021/05/05 04:59:37;;;;;;;22.63;4.00;;;;;;;;;;5061551;28;20120;-73
2021/05/05 05:02:04;;;;;;;23.15;4.13;;;;;;;;;;5070652;28;20116;-71
2021/05/05 05:04:30;;;;;;;23.75;4.18;;;;;;;;;;5061971;28;20021;-71
2021/05/05 05:06:56;;;;;;;27.20;5.75;;;;;;;;;;5068114;28;20024;-71
2021/05/05 05:09:22;;;;;;;25.42;5.07;;;;;;;;;;5062094;28;20041;-72
2021/05/05 05:11:48;;;;;;;12.18;4.15;;;;;;;;;;5060636;28;20024;-73
2021/05/05 05:14:14;;;;;;;20.77;4.35;;;;;;;;;;5061319;28;20028;-73
2021/05/05 05:16:40;;;;;;;24.77;4.85;;;;;;;;;;5056266;28;20032;-73
2021/05/05 05:19:06;;;;;;;18.10;4.18;;;;;;;;;;5052639;28;20027;-73
2021/05/05 05:21:32;;;;;;;13.25;3.47;;;;;;;;;;5056371;28;20494;-74
2021/05/05 05:23:58;;;;;;;17.27;5.18;;;;;;;;;;5063799;28;20028;-73
2021/05/05 05:26:24;;;;;;;17.30;3.90;;;;;;;;;;5067322;28;20024;-73
2021/05/05 05:28:50;;;;;;;15.35;3.72;;;;;;;;;;5065083;28;20028;-70
2021/05/05 05:31:17;;;;;;;18.90;3.67;;;;;;;;;;5068341;28;20028;-75
2021/05/05 05:33:43;;;;;;;18.60;3.83;;;;;;;;;;5069891;28;20028;-74
2021/05/05 05:36:09;;;;;;;22.23;3.97;;;;;;;;;;5064167;28;20107;-79
2021/05/05 05:38:35;;;;;;;14.95;3.53;;;;;;;;;;5070397;28;20115;-76
2021/05/05 05:41:01;;;;;;;25.70;3.53;;;;;;;;;;5061989;28;20553;-78
2021/05/05 05:43:27;;;;;;;25.90;3.92;;;;;;;;;;5052895;28;20036;-76
2021/05/05 05:45:53;;;;;;;23.20;4.55;;;;;;;;;;5071039;28;20025;-77
2021/05/05 05:48:20;;;;;;;20.33;3.13;;;;;;;;;;5058257;28;20035;-74
2021/05/05 05:50:46;;;;;;;13.93;3.35;;;;;;;;;;5062651;28;20052;-73
2021/05/05 05:53:12;;;;;;;17.67;3.80;;;;;;;;;;5056692;28;20025;-74
2021/05/05 05:55:41;;;;;;;21.30;3.83;;;;;;;;;;5064770;28;20040;-74
2021/05/05 05:58:07;;;;;;;23.67;4.03;;;;;;;;;;5067029;28;20029;-75
2021/05/05 06:00:33;;;;;;;16.17;4.30;;;;;;;;;;5061376;28;20060;-77
2021/05/05 06:02:59;;;;;;;16.13;3.50;;;;;;;;;;5055897;28;20444;-74
2021/05/05 06:05:25;;;;;;;16.50;3.85;;;;;;;;;;5063034;28;20029;-74
2021/05/05 06:07:51;;;;;;;16.73;3.40;;;;;;;;;;5061289;28;20040;-78
2021/05/05 06:10:17;;;;;;;26.00;4.38;;;;;;;;;;5057447;28;20439;-76
2021/05/05 06:12:43;;;;;;;19.38;4.25;;;;;;;;;;5075148;28;20029;-74
2021/05/05 06:15:10;;;;;;;20.27;3.60;;;;;;;;;;5066163;28;20230;-71
2021/05/05 06:17:36;;;;;;;19.50;4.55;;;;;;;;;;5068386;28;20039;-73
2021/05/05 06:20:03;;;;;;;26.05;5.35;;;;;;;;;;5061342;28;20028;-74
2021/05/05 06:22:29;;;;;;;19.33;4.03;;;;;;;;;;5052241;28;20037;-71
2021/05/05 06:24:55;;;;;;;20.17;4.22;;;;;;;;;;5065365;28;20073;-73
2021/05/05 06:27:21;;;;;;;28.60;4.00;;;;;;;;;;5066494;28;20029;-72
2021/05/05 06:32:51;;;;;;;17.98;4.10;;;;;;;;;;5062141;28;20028;-70
2021/05/05 06:35:17;;;;;;;22.15;3.90;;;;;;;;;;5069947;28;20027;-73
2021/05/05 06:37:44;;;;;;;11.98;3.03;;;;;;;;;;5058930;28;20052;-75
2021/05/05 06:40:11;;;;;;;20.80;4.05;;;;;;;;;;5067557;28;20036;-75
2021/05/05 06:42:37;;;;;;;21.35;4.47;;;;;;;;;;5067870;28;20028;-77
2021/05/05 06:45:04;;;;;;;21.65;3.80;;;;;;;;;;5068681;28;20171;-77
2021/05/05 06:47:30;;;;;;;19.98;4.38;;;;;;;;;;5065437;28;20089;-74
2021/05/05 06:49:56;;;;;;;16.33;4.47;;;;;;;;;;5075715;28;20419;-76
2021/05/05 06:52:22;;;;;;;13.13;3.08;;;;;;;;;;5049885;28;20036;-71
2021/05/05 06:54:48;;;;;;;18.65;3.38;;;;;;;;;;5052870;28;20133;-73
2021/05/05 06:57:14;;;;;;;14.32;3.33;;;;;;;;;;5053780;28;20048;-76
2021/05/05 06:59:40;;;;;;;14.50;4.03;;;;;;;;;;5067274;28;20028;-74
2021/05/05 07:02:07;;;;;;;17.83;3.55;;;;;;;;;;5052094;28;20033;-75
2021/05/05 07:04:33;;;;;;;14.88;3.88;;;;;;;;;;5076656;28;20025;-73
2021/05/05 07:06:59;;;;;;;16.75;3.67;;;;;;;;;;5068726;28;20024;-73
2021/05/05 07:09:25;;;;;;;21.63;3.90;;;;;;;;;;5068067;28;20044;-75
2021/05/05 07:11:51;;;;;;;17.73;3.70;;;;;;;;;;5075447;28;20031;-70
2021/05/05 07:14:17;;;;;;;15.07;2.80;;;;;;;;;;5057676;28;20079;-73
2021/05/05 07:16:43;;;;;;;17.35;3.45;;;;;;;;;;5064846;28;20033;-72
2021/05/05 07:19:09;;;;;;;11.50;2.63;;;;;;;;;;5072060;28;20040;-73
2021/05/05 07:21:35;;;;;;;18.17;3.53;;;;;;;;;;5064928;28;20039;-72
2021/05/05 07:24:01;;;;;;;22.63;3.40;;;;;;;;;;5072278;28;20052;-70
2021/05/05 07:26:27;;;;;;;17.70;3.90;;;;;;;;;;5068615;28;20037;-74
2021/05/05 07:28:54;;;;;;;16.00;3.03;;;;;;;;;;5072229;28;20163;-77
2021/05/05 07:31:20;;;;;;;16.25;4.22;;;;;;;;;;5070695;28;20028;-75
2021/05/05 07:33:49;;;;;;;18.60;3.75;;;;;;;;;;5061039;28;20037;-76
2021/05/05 07:36:19;;;;;;;14.63;2.88;;;;;;;;;;5057303;28;20025;-74
2021/05/05 07:46:22;;;;;;;14.40;2.90;;;;;;;;;;5057911;28;20040;-72
2021/05/05 07:48:54;;;;;;;14.55;3.22;;;;;;;;;;5056707;28;20250;-71
2021/05/05 07:51:20;;;;;;;15.18;2.58;;;;;;;;;;5065348;28;20033;-72
2021/05/05 07:53:46;;;;;;;21.25;3.58;;;;;;;;;;5069220;28;20032;-73
2021/05/05 07:56:14;;;;;;;15.82;2.65;;;;;;;;;;5057453;28;20025;-71
2021/05/05 07:58:44;;;;;;;20.02;3.13;;;;;;;;;;5056754;28;20032;-79
2021/05/05 08:01:11;;;;;;;12.85;2.85;;;;;;;;;;5063433;28;20029;-73
2021/05/05 08:03:38;;;;;;;14.35;2.83;;;;;;;;;;5060210;28;20025;-70
2021/05/05 08:06:04;;;;;;;11.35;2.40;;;;;;;;;;5070828;28;20097;-70
2021/05/05 08:08:30;;;;;;;14.02;3.00;;;;;;;;;;5068317;28;20048;-71
2021/05/05 08:10:56;;;;;;;16.30;3.17;;;;;;;;;;5063436;28;20028;-71
2021/05/05 08:13:23;;;;;;;15.25;3.10;;;;;;;;;;5053403;28;20028;-75
2021/05/05 08:15:49;;;;;;;19.77;3.45;;;;;;;;;;5059980;28;20020;-74
2021/05/05 08:18:15;;;;;;;19.17;3.72;;;;;;;;;;5054284;28;20062;-71
2021/05/05 08:20:42;;;;;;;20.38;3.03;;;;;;;;;;5055652;28;20047;-75
2021/05/05 08:23:09;;;;;;;17.70;2.90;;;;;;;;;;5061072;28;20490;-75
2021/05/05 08:25:35;;;;;;;15.30;3.42;;;;;;;;;;5068874;28;20115;-77
2021/05/05 08:28:02;;;;;;;17.73;3.15;;;;;;;;;;5069441;28;20032;-72
2021/05/05 08:30:28;;;;;;;10.02;2.33;;;;;;;;;;5055172;28;20024;-69
2021/05/05 08:32:54;;;;;;;16.92;3.20;;;;;;;;;;5060279;28;20063;-73
2021/05/05 08:35:20;;;;;;;15.52;2.75;;;;;;;;;;5069666;28;20480;-72
2021/05/05 08:37:49;;;;;;;13.23;2.88;;;;;;;;;;5064498;28;20025;-74
2021/05/05 08:40:15;;;;;;;13.38;2.65;;;;;;;;;;5054762;28;20111;-74
2021/05/05 08:42:42;;;;;;;12.50;2.88;;;;;;;;;;5063303;28;20086;-77
2021/05/05 08:45:15;;;;;;;14.63;3.28;;;;;;;;;;5053158;28;20031;-73
2021/05/05 08:47:42;;;;;;;9.77;2.50;;;;;;;;;;5060217;28;20077;-70
2021/05/05 08:50:10;;;;;;;16.98;4.05;;;;;;;;;;5054750;28;20021;-77
2021/05/05 08:52:36;;;;;;;9.40;2.15;;;;;;;;;;5064222;28;20547;-73
2021/05/05 08:55:02;;;;;;;15.02;2.90;;;;;;;;;;5063716;28;20124;-81
2021/05/05 08:57:28;;;;;;;12.40;2.47;;;;;;;;;;5060437;28;20016;-75
2021/05/05 08:59:54;;;;;;;14.55;2.55;;;;;;;;;;5058053;28;20017;-81
2021/05/05 09:02:20;;;;;;;11.25;2.83;;;;;;;;;;5063216;28;20115;-79
2021/05/05 09:04:56;;;;;;;18.58;3.70;;;;;;;;;;5059571;28;20070;-78
2021/05/05 09:07:33;;;;;;;11.35;2.95;;;;;;;;;;5062361;28;20033;-77
2021/05/05 09:10:04;;;;;;;21.30;3.17;;;;;;;;;;5059430;28;20108;-72
2021/05/05 09:12:36;;;;;;;13.07;3.17;;;;;;;;;;5060667;28;20029;-72
2021/05/05 09:15:05;;;;;;;17.23;3.22;;;;;;;;;;5060368;28;20021;-81
2021/05/05 09:17:32;;;;;;;16.42;3.25;;;;;;;;;;5061286;28;20025;-80
2021/05/05 09:20:07;;;;;;;8.98;2.80;;;;;;;;;;5058169;28;20017;-78
2021/05/05 09:22:36;;;;;;;13.20;2.92;;;;;;;;;;5063652;28;20029;-77
2021/05/05 09:25:03;;;;;;;13.50;3.45;;;;;;;;;;5064230;28;20074;-70
2021/05/05 09:27:33;;;;;;;14.55;3.38;;;;;;;;;;5061729;28;20039;-76
2021/05/05 09:30:00;;;;;;;9.50;3.38;;;;;;;;;;5056727;28;20406;-77
2021/05/05 09:32:26;;;;;;;13.27;2.80;;;;;;;;;;5061969;28;20031;-81
2021/05/05 09:35:03;;;;;;;12.15;3.03;;;;;;;;;;5060571;28;20107;-79
2021/05/05 09:37:29;;;;;;;12.57;3.05;;;;;;;;;;5061246;28;20024;-81
2021/05/05 09:39:58;;;;;;;7.55;2.33;;;;;;;;;;5062734;28;20455;-76
2021/05/05 09:42:24;;;;;;;18.90;3.35;;;;;;;;;;5058774;28;20115;-75
2021/05/05 09:44:53;;;;;;;13.95;3.03;;;;;;;;;;5061237;28;20116;-82
2021/05/05 09:47:19;;;;;;;12.02;2.75;;;;;;;;;;5060714;28;20024;-78
2021/05/05 09:49:46;;;;;;;12.10;3.10;;;;;;;;;;5064129;28;20051;-75
2021/05/05 09:52:16;;;;;;;20.50;3.25;;;;;;;;;;5058321;28;20040;-80
2021/05/05 09:54:54;;;;;;;9.07;3.05;;;;;;;;;;5062021;28;20036;-80
2021/05/05 09:57:33;;;;;;;15.48;4.15;;;;;;;;;;5055933;28;20525;-76
2021/05/05 10:00:03;;;;;;;15.23;3.20;;;;;;;;;;5057558;28;20024;-78
2021/05/05 10:02:30;;;;;;;14.77;3.00;;;;;;;;;;5063980;28;20070;-70
2021/05/05 10:04:56;;;;;;;13.65;2.40;;;;;;;;;;5058024;28;20020;-76
2021/05/05 10:07:22;;;;;;;16.17;3.13;;;;;;;;;;5066036;28;20025;-73
2021/05/05 10:09:48;;;;;;;19.15;3.55;;;;;;;;;;5063156;28;20043;-73
2021/05/05 10:12:19;;;;;;;15.85;3.70;;;;;;;;;;5063799;28;20034;-80
2021/05/05 10:14:45;;;;;;;15.13;3.58;;;;;;;;;;5064363;28;20020;-77
2021/05/05 10:17:12;;;;;;;11.35;2.67;;;;;;;;;;5061786;28;20398;-75
2021/05/05 10:19:40;;;;;;;11.68;2.95;;;;;;;;;;5060060;28;20041;-80
2021/05/05 10:22:06;;;;;;;14.77;2.78;;;;;;;;;;5064163;28;20037;-75
2021/05/05 10:24:36;;;;;;;10.65;2.83;;;;;;;;;;5069102;28;20074;-74
2021/05/05 10:27:02;;;;;;;11.45;3.22;;;;;;;;;;5066311;28;20366;-72
2021/05/05 10:29:31;;;;;;;14.73;4.10;;;;;;;;;;5055408;28;20024;-77
2021/05/05 10:32:01;;;;;;;13.23;3.03;;;;;;;;;;5064794;28;20051;-81
2021/05/05 10:34:29;;;;;;;5.13;1.35;;;;;;;;;;5058104;28;20025;-78
2021/05/05 10:37:00;;;;;;;11.45;3.25;;;;;;;;;;5058605;28;20044;-79
2021/05/05 10:39:31;;;;;;;11.82;2.97;;;;;;;;;;5074144;28;20071;-73
2021/05/05 10:42:00;;;;;;;12.00;3.08;;;;;;;;;;5060310;28;20040;-73
2021/05/05 10:44:50;;;;;;;13.30;3.22;;;;;;;;;;5061640;28;20083;-76
2021/05/05 10:47:18;;;;;;;13.82;3.15;;;;;;;;;;5044569;28;20044;-79
2021/05/05 10:50:00;;;;;;;11.10;2.63;;;;;;;;;;5059623;28;20021;-75
2021/05/05 10:52:27;;;;;;;11.63;3.15;;;;;;;;;;5056313;28;20029;-76
2021/05/05 10:54:57;;;;;;;13.07;4.22;;;;;;;;;;5057453;28;20033;-75
2021/05/05 10:57:24;;;;;;;10.85;2.35;;;;;;;;;;5071787;28;20113;-70
2021/05/05 11:00:03;;;;;;;10.55;2.83;;;;;;;;;;5068265;28;20479;-77
2021/05/05 11:02:38;;;;;;;11.45;3.50;;;;;;;;;;5060990;28;20056;-76
2021/05/05 11:05:09;;;;;;;12.02;2.92;;;;;;;;;;5062562;28;20043;-74
2021/05/05 11:07:47;;;;;;;10.15;2.83;;;;;;;;;;5065829;28;20060;-77
2021/05/05 11:10:32;;;;;;;11.52;2.45;;;;;;;;;;5066635;28;20064;-77
2021/05/05 11:13:19;;;;;;;10.93;2.90;;;;;;;;;;5078807;28;20036;-75
2021/05/05 11:15:45;;;;;;;9.57;2.90;;;;;;;;;;5047594;28;20032;-73
2021/05/05 11:18:38;;;;;;;16.77;3.97;;;;;;;;;;5069028;28;20043;-76
2021/05/05 11:21:05;;;;;;;13.05;2.78;;;;;;;;;;5067363;28;20107;-74
2021/05/05 11:23:38;;;;;;;10.43;2.85;;;;;;;;;;5064368;28;20028;-74
2021/05/05 11:26:20;;;;;;;12.55;2.50;;;;;;;;;;5068494;28;20048;-74
2021/05/05 11:28:49;;;;;;;14.15;4.00;;;;;;;;;;5060348;28;20009;-76
2021/05/05 11:31:15;;;;;;;14.48;3.15;;;;;;;;;;5063970;28;20028;-74
2021/05/05 11:33:57;;;;;;;8.15;2.78;;;;;;;;;;5067330;28;20024;-72
2021/05/05 11:36:23;;;;;;;12.88;2.88;;;;;;;;;;5063113;28;20037;-76
2021/05/05 11:38:49;;;;;;;16.52;3.28;;;;;;;;;;5057458;28;20362;-73
2021/05/05 11:41:20;;;;;;;17.98;3.10;;;;;;;;;;5063586;28;20272;-75
2021/05/05 11:43:46;;;;;;;12.77;2.63;;;;;;;;;;5058814;28;20104;-75
2021/05/05 11:46:12;;;;;;;5.03;1.88;;;;;;;;;;5058322;28;20032;-75
2021/05/05 11:48:39;;;;;;;7.93;2.25;;;;;;;;;;5057486;28;20024;-74
2021/05/05 11:51:21;;;;;;;10.00;2.42;;;;;;;;;;5062324;28;20028;-70
2021/05/05 11:53:48;;;;;;;8.98;3.13;;;;;;;;;;5065367;28;20024;-72
2021/05/05 11:56:15;;;;;;;16.30;2.80;;;;;;;;;;5062666;28;20506;-77
2021/05/05 11:58:41;;;;;;;11.20;2.95;;;;;;;;;;5059835;28;20032;-75
2021/05/05 12:01:07;;;;;;;16.10;3.95;;;;;;;;;;5058179;28;20024;-76
2021/05/05 12:03:33;;;;;;;11.02;3.45;;;;;;;;;;5060781;28;20063;-75
2021/05/05 12:06:00;;;;;;;11.20;4.07;;;;;;;;;;5067119;28;20074;-75
2021/05/05 12:08:27;;;;;;;10.73;3.33;;;;;;;;;;5057965;28;20098;-74
2021/05/05 12:10:56;;;;;;;13.98;2.85;;;;;;;;;;5055014;28;20079;-73
2021/05/05 12:13:26;;;;;;;13.60;3.92;;;;;;;;;;5067222;28;20082;-76
2021/05/05 12:16:11;;;;;;;20.48;5.47;;;;;;;;;;5062622;28;20020;-76
2021/05/05 12:18:45;;;;;;;10.52;3.05;;;;;;;;;;5057088;28;20440;-74
2021/05/05 12:21:25;;;;;;;11.80;4.15;;;;;;;;;;5071104;28;20086;-76
2021/05/05 12:23:56;;;;;;;13.57;3.10;;;;;;;;;;5064968;28;20041;-73
2021/05/05 12:26:26;;;;;;;12.55;3.00;;;;;;;;;;5065039;28;20028;-75
2021/05/05 12:28:54;;;;;;;7.20;2.92;;;;;;;;;;5063103;28;20036;-73
2021/05/05 12:31:21;;;;;;;10.10;3.25;;;;;;;;;;5065504;28;20043;-73
2021/05/05 12:33:48;;;;;;;12.10;3.65;;;;;;;;;;5063677;28;20561;-74
2021/05/05 12:36:16;;;;;;;15.38;3.42;;;;;;;;;;5064730;28;20119;-75
2021/05/05 12:38:43;;;;;;;12.82;3.28;;;;;;;;;;5056194;28;20541;-74
2021/05/05 12:41:14;;;;;;;6.97;2.70;;;;;;;;;;5063506;28;20028;-68
2021/05/05 12:43:40;;;;;;;9.43;2.85;;;;;;;;;;5067653;28;20101;-72
2021/05/05 12:46:20;;;;;;;16.60;3.70;;;;;;;;;;5065989;28;20063;-76
2021/05/05 12:48:46;;;;;;;16.25;3.17;;;;;;;;;;5063493;28;20016;-79
2021/05/05 12:51:13;;;;;;;13.57;3.60;;;;;;;;;;5067775;28;20064;-74
2021/05/05 12:53:59;;;;;;;15.18;3.80;;;;;;;;;;5064819;28;20157;-80
2021/05/05 12:56:41;;;;;;;14.57;3.63;;;;;;;;;;5060349;28;20033;-71
2021/05/05 12:59:07;;;;;;;11.75;4.32;;;;;;;;;;5057882;28;20253;-79
2021/05/05 13:01:34;;;;;;;10.00;3.75;;;;;;;;;;5062927;28;20063;-71
2021/05/05 13:04:00;;;;;;;13.82;3.30;;;;;;;;;;5057891;28;20024;-74
2021/05/05 13:06:39;;;;;;;17.30;4.47;;;;;;;;;;5062696;28;20036;-74
2021/05/05 13:09:14;;;;;;;10.35;2.80;;;;;;;;;;5055544;28;20033;-74
2021/05/05 13:11:46;;;;;;;10.75;3.85;;;;;;;;;;5065102;28;20040;-78
2021/05/05 13:14:23;;;;;;;16.90;3.08;;;;;;;;;;5058686;28;20059;-78
2021/05/05 13:19:43;;;;;;;16.48;3.47;;;;;;;;;;5057552;28;20058;-73
2021/05/05 13:30:34;;;;;;;8.25;2.65;;;;;;;;;;5053091;28;20576;-74
2021/05/05 13:33:04;;;;;;;9.38;2.92;;;;;;;;;;5056172;28;20073;-80
2021/05/05 13:35:30;;;;;;;14.68;4.18;;;;;;;;;;5055328;28;20028;-75
2021/05/05 13:37:59;;;;;;;15.13;3.53;;;;;;;;;;5061266;28;20037;-78
2021/05/05 13:40:26;;;;;;;8.00;3.15;;;;;;;;;;5053140;28;20122;-73
2021/05/05 13:42:55;;;;;;;6.85;2.97;;;;;;;;;;5057444;28;20025;-71
2021/05/05 13:45:21;;;;;;;11.52;3.95;;;;;;;;;;5056917;28;20028;-72
2021/05/05 13:47:57;;;;;;;12.23;3.50;;;;;;;;;;5060296;28;20028;-72
2021/05/05 13:50:23;;;;;;;11.35;3.38;;;;;;;;;;5056795;28;20066;-70
2021/05/05 13:52:52;;;;;;;12.88;3.33;;;;;;;;;;5056811;28;20063;-72
2021/05/05 13:55:18;;;;;;;13.57;2.92;;;;;;;;;;5057619;28;20217;-72
2021/05/05 13:57:44;;;;;;;10.02;2.85;;;;;;;;;;5059979;28;20020;-72
2021/05/05 14:00:10;;;;;;;12.05;2.92;;;;;;;;;;5060740;28;20115;-71
2021/05/05 14:02:37;;;;;;;9.48;2.53;;;;;;;;;;5052092;28;20112;-72
2021/05/05 14:05:03;;;;;;;7.90;3.13;;;;;;;;;;5060366;28;20017;-71
2021/05/05 14:07:32;;;;;;;14.55;3.40;;;;;;;;;;5053360;28;20103;-73
2021/05/05 14:09:58;;;;;;;11.63;3.42;;;;;;;;;;5055153;28;20481;-75
2021/05/05 14:12:24;;;;;;;8.65;3.03;;;;;;;;;;5060476;28;20035;-78
2021/05/05 14:14:52;;;;;;;6.03;2.78;;;;;;;;;;5059027;28;20537;-70
2021/05/05 14:17:18;;;;;;;10.00;3.13;;;;;;;;;;5055583;28;20041;-74
2021/05/05 14:19:44;;;;;;;11.73;3.45;;;;;;;;;;5060311;28;20055;-76
2021/05/05 14:22:10;;;;;;;9.77;3.25;;;;;;;;;;5058170;28;20040;-74
2021/05/05 14:24:37;;;;;;;13.35;3.70;;;;;;;;;;5059779;28;20039;-73
2021/05/05 14:27:03;;;;;;;11.18;3.88;;;;;;;;;;5064996;28;20521;-73
2021/05/05 14:29:29;;;;;;;15.10;3.22;;;;;;;;;;5060019;28;20031;-73
2021/05/05 14:31:55;;;;;;;14.90;3.97;;;;;;;;;;5056543;28;20502;-74
2021/05/05 14:34:21;;;;;;;10.43;3.40;;;;;;;;;;5057970;28;20029;-73
2021/05/05 14:36:47;;;;;;;11.98;2.67;;;;;;;;;;5057878;28;20485;-71
2021/05/05 14:39:16;;;;;;;13.63;3.20;;;;;;;;;;5060530;28;20032;-74
2021/05/05 14:41:43;;;;;;;11.82;2.95;;;;;;;;;;5057605;28;20017;-75
2021/05/05 14:49:06;;;;;;;13.32;3.35;;;;;;;;;;5056584;28;20213;-72
2021/05/05 14:51:32;;;;;;;11.30;3.83;;;;;;;;;;5051022;28;20048;-76
2021/05/05 14:53:58;;;;;;;7.93;3.30;;;;;;;;;;5064852;28;20044;-75
2021/05/05 14:56:24;;;;;;;8.35;3.08;;;;;;;;;;5069239;28;20050;-73
2021/05/05 14:59:02;;;;;;;13.65;3.95;;;;;;;;;;5063223;28;20021;-72
2021/05/05 15:01:28;;;;;;;9.45;3.17;;;;;;;;;;5055200;28;20068;-75
2021/05/05 15:03:54;;;;;;;7.63;2.95;;;;;;;;;;5065376;28;20046;-72